Time;durP1;ratioP1;P1;durP2;ratioP2;P2;SDS_P1;SDS_P2;PMS_P1;PMS_P2;Temp;Humidity;BMP_temperature;BMP_pressure;BME280_temperature;BME280_humidity;BME280_pressure;Samples;Min_cycle;Max_cycle;Signal;HPM_P1;HPM_P2
2022/03/15 00:01:12;;;;;;;22.35;2.05;;;;;;;19.76;46.69;100749.19;7316362;19;130593;-40
2022/03/15 00:03:38;;;;;;;32.58;2.55;;;;;;;19.76;46.29;100755.25;7316596;19;129845;-41
2022/03/15 00:06:03;;;;;;;19.77;1.73;;;;;;;19.77;46.92;100758.69;7316098;19;131520;-41
2022/03/15 00:08:30;;;;;;;31.25;2.80;;;;;;;19.76;46.87;100759.63;7313131;19;128906;-40
2022/03/15 00:10:57;;;;;;;25.90;2.05;;;;;;;19.75;46.70;100763.19;7312924;19;129406;-39
2022/03/15 00:13:23;;;;;;;27.08;2.20;;;;;;;19.77;46.67;100761.28;7314957;19;130320;-40
2022/03/15 00:15:49;;;;;;;37.15;3.20;;;;;;;19.79;46.69;100767.25;7313252;19;129822;-40
2022/03/15 00:18:14;;;;;;;24.50;1.98;;;;;;;19.77;46.38;100750.84;7313821;19;129637;-40
2022/03/15 00:20:39;;;;;;;32.55;2.72;;;;;;;19.79;46.76;100759.44;7312886;19;129411;-41
2022/03/15 00:23:05;;;;;;;34.58;3.05;;;;;;;19.75;46.44;100757.97;7313645;19;130850;-39
2022/03/15 00:25:31;;;;;;;43.97;3.78;;;;;;;19.76;46.84;100754.41;7312578;19;131354;-40
2022/03/15 00:27:57;;;;;;;22.25;1.73;;;;;;;19.76;46.83;100743.97;7314896;19;129061;-41
2022/03/15 00:30:24;;;;;;;25.75;2.17;;;;;;;19.78;46.22;100752.56;7311104;19;128983;-41
2022/03/15 00:32:49;;;;;;;;;;;;;;;19.79;46.16;100741.16;7313573;19;130198;-40
2022/03/15 00:35:19;;;;;;;26.73;2.17;;;;;;;19.68;46.78;100726.22;7314366;19;130223;-39
2022/03/15 00:37:45;;;;;;;30.88;2.80;;;;;;;19.78;46.46;100744.72;7313934;19;129707;-39
2022/03/15 00:40:12;;;;;;;29.95;2.50;;;;;;;19.79;46.08;100741.16;7310527;19;129215;-38
2022/03/15 00:42:38;;;;;;;26.38;2.15;;;;;;;19.79;46.21;100733.34;7315206;19;130501;-39
2022/03/15 00:45:05;;;;;;;29.02;2.42;;;;;;;19.69;46.41;100721.81;7314414;19;131557;-41
2022/03/15 00:47:31;;;;;;;28.67;2.33;;;;;;;19.83;46.56;100729.59;7313961;19;129953;-41
2022/03/15 00:49:56;;;;;;;18.58;1.90;;;;;;;19.80;46.75;100735.03;7311399;19;128890;-40
2022/03/15 00:52:21;;;;;;;32.55;2.72;;;;;;;19.80;46.78;100732.41;7314681;19;130207;-41
2022/03/15 00:54:47;;;;;;;28.42;2.45;;;;;;;19.80;46.73;100730.63;7312441;19;158290;-41
2022/03/15 00:57:12;;;;;;;20.73;1.67;;;;;;;19.80;46.24;100724.59;7312310;19;130348;-39
2022/03/15 00:59:38;;;;;;;26.17;2.25;;;;;;;19.81;46.83;100721.88;7311907;19;129345;-41
2022/03/15 01:02:03;;;;;;;27.70;2.55;;;;;;;19.77;46.26;100719.53;7312278;19;129147;-41
2022/03/15 01:04:29;;;;;;;25.77;2.10;;;;;;;19.80;46.50;100728.00;7310201;19;158421;-41
2022/03/15 01:06:54;;;;;;;25.10;2.00;;;;;;;19.80;46.89;100725.41;7311783;19;131499;-41
2022/03/15 01:09:19;;;;;;;16.80;1.67;;;;;;;19.82;46.65;100727.91;7311020;19;129107;-41
2022/03/15 01:11:44;;;;;;;20.97;1.83;;;;;;;19.72;46.36;100713.81;7311366;19;158544;-39
2022/03/15 01:14:10;;;;;;;27.85;2.33;;;;;;;19.80;46.13;100729.81;7310059;19;159453;-40
2022/03/15 01:16:35;;;;;;;25.20;2.08;;;;;;;19.81;46.56;100739.28;7312829;19;129763;-40
2022/03/15 01:19:00;;;;;;;32.83;2.85;;;;;;;19.80;46.05;100740.25;7310874;19;154104;-41
2022/03/15 01:21:26;;;;;;;9.10;1.00;;;;;;;19.71;46.59;100730.41;7312564;19;130162;-40
2022/03/15 01:23:53;;;;;;;22.88;2.17;;;;;;;19.82;46.62;100746.19;7313301;19;130679;-40
2022/03/15 01:26:18;;;;;;;20.33;1.83;;;;;;;19.83;46.23;100747.88;7312323;19;129037;-40
2022/03/15 01:28:43;;;;;;;20.70;1.75;;;;;;;19.73;46.44;100720.69;7311160;19;130484;-41
2022/03/15 01:31:11;;;;;;;29.92;2.53;;;;;;;19.81;46.16;100739.28;7309149;19;158986;-41
2022/03/15 01:33:36;;;;;;;25.55;2.22;;;;;;;19.83;46.40;100745.25;7311150;19;130205;-40
2022/03/15 01:36:02;;;;;;;41.13;3.25;;;;;;;19.84;46.58;100741.69;7310671;19;130387;-40
2022/03/15 01:38:27;;;;;;;25.23;2.03;;;;;;;19.85;46.26;100732.94;7311353;19;128918;-40
2022/03/15 01:40:53;;;;;;;21.80;1.85;;;;;;;19.73;46.65;100728.53;7310299;19;158594;-41
2022/03/15 01:43:18;;;;;;;23.58;1.85;;;;;;;19.86;46.20;100745.06;7311884;19;132341;-41
2022/03/15 01:45:43;;;;;;;20.63;1.77;;;;;;;19.85;45.84;100743.38;7310014;19;153983;-39
2022/03/15 01:48:09;;;;;;;43.30;3.67;;;;;;;19.83;46.29;100745.25;7310577;19;140001;-40
2022/03/15 01:50:36;;;;;;;23.98;1.85;;;;;;;19.76;46.10;100738.75;7310210;19;130334;-41
2022/03/15 01:53:01;;;;;;;18.65;1.58;;;;;;;19.84;46.18;100755.59;7311389;19;129572;-40
2022/03/15 01:55:27;;;;;;;38.20;3.25;;;;;;;19.83;45.95;100760.91;7311623;19;129668;-40
2022/03/15 01:57:53;;;;;;;14.38;1.25;;;;;;;19.78;46.37;100736.91;7311708;19;128999;-40
2022/03/15 02:00:19;;;;;;;30.20;2.58;;;;;;;19.85;46.25;100751.22;7308826;19;130733;-40
2022/03/15 02:02:45;;;;;;;21.90;1.80;;;;;;;19.85;46.12;100759.06;7311460;19;130298;-39
2022/03/15 02:05:11;;;;;;;40.53;3.50;;;;;;;19.85;46.13;100759.88;7310465;19;129545;-40
2022/03/15 02:07:36;;;;;;;24.70;1.97;;;;;;;19.86;46.57;100758.94;7310028;19;129071;-38
2022/03/15 02:10:03;;;;;;;28.80;2.35;;;;;;;19.86;46.05;100760.72;7308378;19;129918;-40
2022/03/15 02:12:28;;;;;;;25.48;2.22;;;;;;;19.85;46.32;100756.44;7310820;19;130445;-40
2022/03/15 02:14:54;;;;;;;21.35;2.20;;;;;;;19.86;46.13;100755.50;7311937;19;128822;-38
2022/03/15 02:17:19;;;;;;;29.85;2.38;;;;;;;19.84;45.96;100753.00;7313898;19;153258;-38
2022/03/15 02:19:45;;;;;;;25.87;2.03;;;;;;;19.84;46.11;100747.75;7313618;19;158659;-40
2022/03/15 02:22:10;;;;;;;39.93;3.47;;;;;;;19.86;45.89;100756.34;7317538;19;130297;-37
2022/03/15 02:24:38;;;;;;;18.70;1.58;;;;;;;19.86;45.82;100755.50;7313884;19;154384;-38
2022/03/15 02:27:03;;;;;;;24.23;2.08;;;;;;;19.85;45.89;100753.84;7318327;19;129842;-37
2022/03/15 02:29:29;;;;;;;34.65;2.88;;;;;;;19.85;45.94;100736.38;7315850;19;130364;-39
2022/03/15 02:31:54;;;;;;;27.50;2.38;;;;;;;19.86;46.27;100743.28;7317417;19;130240;-38
2022/03/15 02:34:21;;;;;;;43.88;3.35;;;;;;;19.86;46.18;100745.06;7314924;19;129292;-38
2022/03/15 02:36:47;;;;;;;15.90;1.40;;;;;;;19.86;45.91;100745.91;7316893;19;129990;-38
2022/03/15 02:39:12;;;;;;;19.75;1.50;;;;;;;19.87;46.67;100752.78;7316967;19;130334;-38
2022/03/15 02:41:38;;;;;;;21.33;1.73;;;;;;;19.86;46.03;100742.44;7316907;19;130228;-38
2022/03/15 02:44:03;;;;;;;24.85;1.92;;;;;;;19.88;46.02;100753.63;7315620;19;155444;-38
2022/03/15 02:46:30;;;;;;;30.98;2.50;;;;;;;19.88;45.89;100753.63;7316861;19;129144;-40
2022/03/15 02:48:56;;;;;;;29.75;2.53;;;;;;;19.87;46.18;100757.16;7315755;19;129084;-37
2022/03/15 02:51:21;;;;;;;21.60;1.73;;;;;;;19.82;45.73;100747.03;7315801;19;130431;-37
2022/03/15 02:53:47;;;;;;;17.90;1.55;;;;;;;19.87;45.98;100758.00;7318134;19;128943;-40
2022/03/15 02:56:12;;;;;;;19.60;1.67;;;;;;;19.88;45.78;100758.84;7318202;19;129742;-39
2022/03/15 02:58:39;;;;;;;39.05;3.17;;;;;;;19.79;46.09;100743.78;7316066;19;130173;-39
2022/03/15 03:01:04;;;;;;;;;;;;;;;19.78;45.85;100739.50;7317438;19;129366;-39
2022/03/15 03:03:30;;;;;;;27.23;2.23;;;;;;;19.88;46.29;100758.84;7316811;19;129661;-40
2022/03/15 03:05:55;;;;;;;6.03;0.70;;;;;;;19.89;45.58;100752.69;7315817;19;129201;-41
2022/03/15 03:08:27;;;;;;;40.30;3.40;;;;;;;19.89;46.09;100761.34;7312472;19;158119;-41
2022/03/15 03:10:54;;;;;;;16.02;1.27;;;;;;;19.90;46.40;100743.94;7310610;19;130459;-41
2022/03/15 03:13:24;;;;;;;;;;;;;;;19.88;46.28;100749.25;7315250;19;129189;-41
2022/03/15 03:15:50;;;;;;;31.70;2.67;;;;;;;19.92;46.09;100749.84;7314797;19;129162;-40
2022/03/15 03:18:16;;;;;;;21.75;1.83;;;;;;;19.89;45.76;100761.34;7315740;19;130569;-40
2022/03/15 03:20:42;;;;;;;24.17;2.13;;;;;;;19.89;46.02;100758.75;7313761;19;130086;-40
2022/03/15 03:23:07;;;;;;;13.95;1.40;;;;;;;19.89;45.97;100766.56;7313989;19;130235;-41
2022/03/15 03:25:35;;;;;;;44.78;3.65;;;;;;;19.90;46.05;100756.97;7314627;19;130007;-39
2022/03/15 03:28:01;;;;;;;20.05;1.63;;;;;;;19.86;46.29;100755.50;7313754;19;130428;-40
2022/03/15 03:30:29;;;;;;;31.77;2.75;;;;;;;19.90;45.79;100768.22;7311003;19;131092;-38
2022/03/15 03:32:54;;;;;;;21.55;1.77;;;;;;;19.91;45.70;100769.06;7313470;19;129191;-38
2022/03/15 03:35:20;;;;;;;33.58;2.72;;;;;;;19.89;45.75;100770.94;7313833;19;130610;-39
2022/03/15 03:37:45;;;;;;;30.80;2.63;;;;;;;19.83;46.19;100750.47;7314468;19;130294;-38
2022/03/15 03:40:10;;;;;;;11.73;1.17;;;;;;;19.90;46.33;100767.41;7309933;19;158308;-38
2022/03/15 03:42:36;;;;;;;29.85;2.35;;;;;;;19.92;45.77;100765.50;7313070;19;129116;-40
2022/03/15 03:45:03;;;;;;;39.40;3.37;;;;;;;19.93;45.68;100767.22;7311257;19;130536;-39
2022/03/15 03:47:28;;;;;;;22.77;1.80;;;;;;;19.92;45.63;100770.75;7313077;19;129640;-38
2022/03/15 03:49:54;;;;;;;34.35;2.88;;;;;;;19.88;46.24;100770.13;7311691;19;130671;-39
2022/03/15 03:52:19;;;;;;;37.17;3.00;;;;;;;19.88;46.19;100762.31;7307640;19;129370;-38
2022/03/15 03:54:44;;;;;;;24.67;1.97;;;;;;;19.90;46.10;100773.44;7307063;19;154266;-38
2022/03/15 03:57:09;;;;;;;31.33;2.57;;;;;;;19.94;46.15;100774.09;7310913;19;158575;-38
2022/03/15 03:59:35;;;;;;;18.90;1.67;;;;;;;19.92;46.31;100773.34;7309749;19;159161;-37
2022/03/15 04:02:00;;;;;;;28.40;2.30;;;;;;;19.94;46.09;100780.16;7310704;19;154357;-39
2022/03/15 04:04:25;;;;;;;36.10;2.92;;;;;;;19.93;46.28;100773.25;7311737;19;129434;-38
2022/03/15 04:06:51;;;;;;;23.13;1.85;;;;;;;19.93;45.67;100767.22;7313907;19;130623;-38
2022/03/15 04:09:16;;;;;;;26.80;2.47;;;;;;;19.92;46.14;100765.50;7165998;19;2810728;-38
2022/03/15 04:11:42;;;;;;;18.30;1.48;;;;;;;19.90;46.25;100762.19;7313705;19;128924;-38
2022/03/15 04:14:11;;;;;;;31.98;2.72;;;;;;;19.93;46.05;100764.59;7313505;19;153503;-39
2022/03/15 04:16:37;;;;;;;24.67;2.13;;;;;;;19.92;46.00;100760.28;7314738;19;130905;-38
2022/03/15 04:19:02;;;;;;;24.97;2.07;;;;;;;19.92;45.97;100757.69;7314714;19;131160;-38
2022/03/15 04:21:28;;;;;;;13.05;1.27;;;;;;;19.94;46.17;100755.81;7314437;19;154767;-38
2022/03/15 04:23:55;;;;;;;26.97;2.23;;;;;;;19.93;45.62;100756.78;7312058;19;152844;-39
2022/03/15 04:26:22;;;;;;;26.70;2.17;;;;;;;19.92;46.06;100755.94;7313935;19;129766;-39
2022/03/15 04:28:47;;;;;;;24.35;2.30;;;;;;;19.93;45.59;100762.00;7313075;19;131724;-40
2022/03/15 04:31:12;;;;;;;23.52;1.85;;;;;;;19.92;45.62;100755.94;7311761;19;144830;-41
2022/03/15 04:33:37;;;;;;;31.10;2.63;;;;;;;19.94;45.89;100758.44;7312301;19;154053;-39
2022/03/15 04:36:03;;;;;;;28.30;2.30;;;;;;;19.87;45.99;100741.50;7314011;19;129862;-40
2022/03/15 04:38:28;;;;;;;12.55;1.33;;;;;;;19.93;46.25;100746.34;7312283;19;130277;-40
2022/03/15 04:40:54;;;;;;;25.42;2.00;;;;;;;19.93;45.69;100741.94;7314001;19;129339;-39
2022/03/15 04:43:19;;;;;;;28.15;2.22;;;;;;;19.94;46.15;100750.59;7315209;19;130944;-40
2022/03/15 04:45:44;;;;;;;13.02;1.20;;;;;;;19.95;46.01;100760.13;7311662;19;154862;-40
2022/03/15 04:48:10;;;;;;;31.33;2.58;;;;;;;19.95;45.59;100754.91;7312733;19;130807;-41
2022/03/15 04:50:35;;;;;;;18.90;1.45;;;;;;;19.87;45.63;100746.72;7313123;19;129961;-40
2022/03/15 04:53:00;;;;;;;42.97;3.50;;;;;;;19.95;45.85;100754.91;7312627;19;129129;-38
2022/03/15 04:55:26;;;;;;;52.50;4.18;;;;;;;19.93;45.58;100751.56;7312854;19;130308;-39
2022/03/15 04:57:52;;;;;;;28.92;2.33;;;;;;;19.93;45.88;100752.38;7311263;19;130416;-40
2022/03/15 05:00:18;;;;;;;28.33;2.25;;;;;;;19.87;45.70;100737.13;7309777;19;129972;-40
2022/03/15 05:02:44;;;;;;;18.02;1.52;;;;;;;19.94;45.93;100743.63;7313364;19;130100;-38
2022/03/15 05:05:13;;;;;;;35.13;2.83;;;;;;;19.94;45.67;100743.63;7310556;19;131855;-39
2022/03/15 05:07:38;;;;;;;28.50;2.15;;;;;;;19.96;45.96;100744.34;7307901;19;129416;-40
2022/03/15 05:12:48;;;;;;;33.13;2.70;;;;;;;19.97;45.84;100747.78;7312583;19;130684;-40
2022/03/15 05:15:14;;;;;;;41.80;3.28;;;;;;;19.94;46.00;100737.56;7310076;19;129006;-39
2022/03/15 05:17:39;;;;;;;22.00;1.80;;;;;;;19.97;45.75;100737.34;7310116;19;161778;-40
2022/03/15 05:20:05;;;;;;;25.63;2.03;;;;;;;19.96;46.05;100733.06;7307464;19;154456;-40
2022/03/15 05:22:31;;;;;;;24.08;2.08;;;;;;;19.97;45.53;100729.50;7312260;19;129277;-40
2022/03/15 05:24:57;;;;;;;26.60;2.28;;;;;;;19.97;45.42;100732.13;7313259;19;130308;-40
2022/03/15 05:27:22;;;;;;;40.78;3.13;;;;;;;19.98;45.61;100728.59;7310040;19;130540;-40
2022/03/15 05:29:48;;;;;;;12.10;1.17;;;;;;;19.97;45.98;100732.97;7307289;19;154389;-42
2022/03/15 05:32:13;;;;;;;23.83;1.88;;;;;;;19.90;45.97;100715.22;7310786;19;154218;-40
2022/03/15 05:34:38;;;;;;;30.77;2.72;;;;;;;19.96;45.52;100731.31;7309133;19;159440;-41
2022/03/15 05:37:04;;;;;;;46.65;3.63;;;;;;;19.97;45.94;100726.91;7306343;19;158407;-41
2022/03/15 05:39:29;;;;;;;43.83;3.45;;;;;;;19.98;45.47;100731.19;7308897;19;129785;-38
2022/03/15 05:41:54;;;;;;;31.83;2.63;;;;;;;19.96;45.65;100731.31;7310658;19;153978;-41
2022/03/15 05:44:20;;;;;;;25.45;2.05;;;;;;;19.97;45.51;100729.50;7309557;19;158807;-41
2022/03/15 05:46:45;;;;;;;32.23;2.67;;;;;;;19.96;45.58;100730.47;7309680;19;158850;-42
2022/03/15 05:49:10;;;;;;;24.90;1.93;;;;;;;19.96;45.80;100727.84;7309273;19;154312;-41
2022/03/15 05:51:35;;;;;;;18.73;1.70;;;;;;;19.94;45.66;100732.34;7306091;19;153904;-40
2022/03/15 05:54:01;;;;;;;28.10;2.27;;;;;;;19.96;46.06;100730.47;7309093;19;158415;-41
2022/03/15 05:56:26;;;;;;;41.35;3.22;;;;;;;19.96;45.58;100730.47;7309679;19;130931;-39
2022/03/15 05:58:51;;;;;;;36.00;2.90;;;;;;;19.97;45.34;100729.50;7308599;19;129482;-40
2022/03/15 06:01:17;;;;;;;19.87;1.70;;;;;;;19.96;45.49;100733.91;7309781;19;154317;-38
2022/03/15 06:03:42;;;;;;;28.23;2.35;;;;;;;19.98;45.72;100729.41;7310330;19;157163;-41
2022/03/15 06:06:07;;;;;;;26.80;2.25;;;;;;;19.99;45.31;100731.09;7310063;19;159324;-42
2022/03/15 06:08:33;;;;;;;17.73;1.55;;;;;;;19.98;45.39;100733.81;7309183;19;129322;-41
2022/03/15 06:11:00;;;;;;;22.60;2.05;;;;;;;19.97;45.38;100737.34;7307655;19;154363;-40
2022/03/15 06:13:25;;;;;;;26.67;2.03;;;;;;;19.99;45.60;100738.09;7307178;19;130762;-40
2022/03/15 06:15:50;;;;;;;22.60;1.98;;;;;;;19.98;45.76;100729.41;7310013;19;130325;-41
2022/03/15 06:18:16;;;;;;;27.35;2.22;;;;;;;19.99;45.38;100730.25;7309532;19;154537;-41
2022/03/15 06:20:41;;;;;;;42.08;3.17;;;;;;;20.00;45.88;100721.50;7309057;19;129620;-40
2022/03/15 06:23:06;;;;;;;41.35;3.42;;;;;;;20.00;45.79;100724.13;7310860;19;129275;-40
2022/03/15 06:25:32;;;;;;;43.28;3.58;;;;;;;19.92;45.45;100705.50;7310779;19;130895;-40
2022/03/15 06:27:58;;;;;;;32.65;2.65;;;;;;;19.98;45.84;100720.75;7309701;19;129069;-39
2022/03/15 06:30:24;;;;;;;17.20;1.47;;;;;;;20.00;45.58;100724.13;7308061;19;129046;-41
2022/03/15 06:32:49;;;;;;;22.38;1.80;;;;;;;19.98;45.78;100720.75;7310560;19;129219;-40
2022/03/15 06:35:14;;;;;;;33.90;2.83;;;;;;;20.01;45.33;100717.94;7310318;19;129576;-37
2022/03/15 06:37:44;;;;;;;28.00;2.35;;;;;;;20.00;45.37;100722.31;7311746;19;130032;-41
2022/03/15 06:40:10;;;;;;;35.28;2.92;;;;;;;20.00;45.49;100724.13;7306915;19;129144;-39
2022/03/15 06:42:38;;;;;;;49.90;4.18;;;;;;;19.99;45.29;100720.66;7308905;19;130145;-40
2022/03/15 06:45:04;;;;;;;26.88;2.15;;;;;;;20.00;45.74;100726.72;7310860;19;129103;-37
2022/03/15 06:47:29;;;;;;;20.73;1.73;;;;;;;19.99;45.49;100719.81;7310006;19;129430;-40
2022/03/15 06:49:54;;;;;;;32.97;2.88;;;;;;;19.98;45.23;100715.53;7305585;19;153934;-42
2022/03/15 06:52:20;;;;;;;22.77;1.85;;;;;;;19.99;45.86;100711.97;7308528;19;141821;-40
2022/03/15 06:54:45;;;;;;;34.17;2.67;;;;;;;19.98;45.55;100721.56;7310404;19;130375;-41
2022/03/15 06:57:10;;;;;;;24.13;1.77;;;;;;;19.97;45.36;100721.69;7309919;19;129146;-41
2022/03/15 06:59:35;;;;;;;32.67;2.80;;;;;;;19.98;45.48;100721.56;7306305;19;154764;-38
2022/03/15 07:02:01;;;;;;;33.33;2.47;;;;;;;19.99;45.69;100725.03;7308469;19;137253;-41
2022/03/15 07:04:26;;;;;;;28.58;2.70;;;;;;;19.98;45.56;100724.19;7315877;19;157071;-42
2022/03/15 07:06:52;;;;;;;21.35;1.88;;;;;;;19.99;45.93;100717.19;7317220;19;128966;-40
2022/03/15 07:09:17;;;;;;;26.58;2.28;;;;;;;19.97;45.83;100719.06;7311702;19;154000;-41
2022/03/15 07:11:42;;;;;;;39.17;3.17;;;;;;;20.00;45.38;100724.13;7312288;19;158466;-41
2022/03/15 07:14:07;;;;;;;28.52;2.38;;;;;;;20.01;45.81;100723.16;7315174;19;158490;-41
2022/03/15 07:16:33;;;;;;;23.57;2.00;;;;;;;20.00;45.12;100721.50;7315557;19;154447;-41
2022/03/15 07:18:58;;;;;;;77.45;6.50;;;;;;;19.99;45.58;100714.59;7308342;19;154306;-41
2022/03/15 07:21:23;;;;;;;12.83;1.40;;;;;;;20.00;45.69;100716.28;7314014;19;159377;-41
2022/03/15 07:23:49;;;;;;;43.58;3.65;;;;;;;19.99;45.56;100714.59;7313559;19;144293;-41
2022/03/15 07:26:14;;;;;;;24.70;2.05;;;;;;;19.98;45.51;100713.75;7317027;19;129277;-39
2022/03/15 07:28:40;;;;;;;22.02;1.95;;;;;;;20.00;45.32;100713.69;7315119;19;154071;-40
2022/03/15 07:31:05;;;;;;;32.17;2.45;;;;;;;19.98;45.52;100712.94;7308752;19;159695;-41
2022/03/15 07:33:31;;;;;;;18.77;1.63;;;;;;;19.97;45.79;100712.09;7311085;19;155928;-41
2022/03/15 07:35:59;;;;;;;39.07;3.10;;;;;;;20.00;45.26;100726.72;7315912;19;129433;-42
2022/03/15 07:38:25;;;;;;;35.05;2.95;;;;;;;19.99;45.13;100731.09;7315232;19;129455;-42
2022/03/15 07:40:52;;;;;;;32.53;2.70;;;;;;;20.01;45.71;100723.16;7316011;19;130574;-42
2022/03/15 07:43:18;;;;;;;19.75;1.65;;;;;;;20.01;45.30;100723.16;7313765;19;130519;-39
2022/03/15 07:45:43;;;;;;;25.27;2.10;;;;;;;20.01;45.19;100717.94;7315876;19;129897;-38
2022/03/15 07:48:08;;;;;;;41.28;3.38;;;;;;;19.93;45.79;100704.56;7313551;19;154665;-40
2022/03/15 07:50:34;;;;;;;21.67;1.98;;;;;;;20.01;45.73;100704.91;7315688;19;133188;-41
2022/03/15 07:53:00;;;;;;;41.23;3.97;;;;;;;19.90;45.15;100686.50;7303876;19;131009;-41
2022/03/15 07:55:25;;;;;;;188.23;16.73;;;;;;;20.02;45.20;100709.16;7309003;19;129704;-39
2022/03/15 07:57:50;;;;;;;33.88;4.22;;;;;;;20.02;45.67;100710.00;7305377;19;129604;-42
2022/03/15 08:00:16;;;;;;;31.75;4.80;;;;;;;20.04;45.31;100694.25;7312009;19;158274;-40
2022/03/15 08:02:42;;;;;;;36.72;4.35;;;;;;;20.03;45.14;100696.00;7315230;19;130932;-39
2022/03/15 08:05:08;;;;;;;86.17;9.00;;;;;;;19.94;45.49;100687.97;7313337;19;128975;-40
2022/03/15 08:07:36;;;;;;;33.33;5.00;;;;;;;20.03;45.19;100695.19;7311981;19;129648;-38
2022/03/15 08:10:07;;;;;;;57.00;6.95;;;;;;;20.02;45.17;100689.13;7308023;19;130169;-40
2022/03/15 08:12:32;;;;;;;54.80;6.57;;;;;;;19.97;45.57;100666.88;7311846;19;130850;-38
2022/03/15 08:14:57;;;;;;;43.90;6.40;;;;;;;20.04;45.13;100675.97;7307631;19;155920;-39
2022/03/15 08:17:23;;;;;;;34.47;5.43;;;;;;;19.94;45.49;100660.09;7307085;19;153986;-39
2022/03/15 08:19:48;;;;;;;49.10;6.37;;;;;;;20.04;45.63;100675.97;7310188;19;146203;-39
2022/03/15 08:22:13;;;;;;;38.37;6.63;;;;;;;20.02;45.44;100668.25;7309667;19;158298;-39
2022/03/15 08:24:38;;;;;;;61.80;8.07;;;;;;;20.02;45.45;100668.25;7310155;19;154422;-40
2022/03/15 08:27:04;;;;;;;50.05;6.55;;;;;;;19.96;45.62;100662.59;7308639;19;153122;-39
2022/03/15 08:29:31;;;;;;;29.25;5.95;;;;;;;20.04;45.64;100670.75;7306090;19;159270;-39
2022/03/15 08:31:57;;;;;;;73.90;8.73;;;;;;;20.04;45.68;100675.97;7307861;19;129660;-40
2022/03/15 08:34:23;;;;;;;46.07;7.23;;;;;;;20.03;45.66;100672.50;7309419;19;130634;-39
2022/03/15 08:36:49;;;;;;;56.95;8.55;;;;;;;20.04;45.16;100673.34;7308118;19;129664;-39
2022/03/15 08:39:15;;;;;;;41.90;6.90;;;;;;;20.05;45.01;100667.19;7307398;19;129446;-40
2022/03/15 08:41:41;;;;;;;39.33;7.13;;;;;;;19.97;45.56;100652.06;7311901;19;130422;-39
2022/03/15 08:44:07;;;;;;;47.23;7.47;;;;;;;19.96;44.98;100646.94;7311672;19;129833;-41
2022/03/15 08:46:32;;;;;;;46.97;7.60;;;;;;;20.03;45.09;100664.69;7310262;19;129548;-40
2022/03/15 08:48:57;;;;;;;42.90;6.90;;;;;;;20.02;45.46;100656.97;7308640;19;158639;-40
2022/03/15 08:51:22;;;;;;;73.28;9.18;;;;;;;20.04;44.93;100657.69;7307793;19;159015;-40
2022/03/15 08:53:48;;;;;;;29.65;6.18;;;;;;;20.02;45.00;100656.97;7311864;19;129265;-41
2022/03/15 08:56:13;;;;;;;59.25;8.50;;;;;;;19.95;45.40;100645.28;7310046;19;154651;-41
2022/03/15 08:58:38;;;;;;;29.67;6.35;;;;;;;20.02;45.63;100647.38;7309874;19;160866;-41
2022/03/15 09:01:04;;;;;;;33.45;7.10;;;;;;;20.04;45.16;100649.88;7311269;19;130291;-40
2022/03/15 09:03:29;;;;;;;68.20;9.45;;;;;;;20.04;45.75;100649.88;7310542;19;129187;-41
2022/03/15 09:05:54;;;;;;;47.70;7.90;;;;;;;19.97;45.66;100628.56;7310287;19;129731;-42
2022/03/15 09:08:20;;;;;;;47.92;9.10;;;;;;;20.04;45.30;100640.28;7310734;19;129307;-39
2022/03/15 09:10:46;;;;;;;38.00;7.00;;;;;;;20.04;45.25;100631.59;7311347;19;130370;-40
2022/03/15 09:13:11;;;;;;;37.20;7.40;;;;;;;20.04;45.36;100628.97;7310400;19;129326;-41
2022/03/15 09:15:37;;;;;;;64.30;8.93;;;;;;;20.07;45.21;100636.59;7311013;19;129505;-41
2022/03/15 09:18:03;;;;;;;38.50;7.78;;;;;;;20.06;44.96;100632.34;7310774;19;129105;-40
2022/03/15 09:20:28;;;;;;;55.70;9.07;;;;;;;20.05;45.52;100635.88;7307510;19;130826;-41
2022/03/15 09:22:53;;;;;;;54.92;8.55;;;;;;;20.02;45.70;100630.84;7310385;19;129291;-40
2022/03/15 09:25:19;;;;;;;47.85;8.48;;;;;;;20.08;45.57;100635.69;7306357;19;154062;-40
2022/03/15 09:27:47;;;;;;;51.45;8.32;;;;;;;20.04;45.10;100636.81;7309395;19;130911;-39
2022/03/15 09:30:12;;;;;;;34.35;7.65;;;;;;;20.04;45.26;100626.38;7309295;19;131277;-40
2022/03/15 09:32:38;;;;;;;47.22;8.52;;;;;;;19.97;45.33;100618.13;7305949;19;129261;-40
2022/03/15 09:35:03;;;;;;;94.55;11.13;;;;;;;20.05;45.47;100630.63;7307018;19;129403;-39
2022/03/15 09:37:29;;;;;;;37.78;7.22;;;;;;;20.03;45.17;100624.72;7303171;19;130166;-40
2022/03/15 09:39:57;;;;;;;49.90;8.68;;;;;;;19.96;45.17;100605.19;7308400;19;130430;-40
2022/03/15 09:42:24;;;;;;;45.63;8.30;;;;;;;20.03;45.60;100616.88;7300368;19;130003;-40
2022/03/15 09:44:50;;;;;;;30.45;6.60;;;;;;;20.05;45.52;100617.59;7310806;19;129152;-39
2022/03/15 09:47:19;;;;;;;54.40;8.18;;;;;;;20.07;45.04;100618.31;7306737;19;130966;-40
2022/03/15 09:49:45;;;;;;;53.30;8.77;;;;;;;20.05;45.62;100615.81;7307990;19;129268;-40
2022/03/15 09:52:11;;;;;;;35.20;7.27;;;;;;;20.01;45.07;100595.25;7307159;19;128927;-41
2022/03/15 09:54:38;;;;;;;54.67;8.93;;;;;;;20.06;45.50;100616.66;7307733;19;129798;-40
2022/03/15 09:57:05;;;;;;;50.20;8.80;;;;;;;20.04;45.20;100602.88;7304294;19;129847;-41
2022/03/15 09:59:32;;;;;;;55.40;8.05;;;;;;;20.04;45.13;100597.66;7300000;19;130400;-39
2022/03/15 10:01:59;;;;;;;62.63;9.27;;;;;;;20.05;45.27;100601.94;7306677;19;130361;-39
2022/03/15 10:04:25;;;;;;;41.03;7.80;;;;;;;20.07;45.38;100597.44;7308604;19;129004;-40
2022/03/15 10:06:52;;;;;;;90.15;11.10;;;;;;;20.08;45.62;100593.91;7303971;19;129165;-41
2022/03/15 10:09:18;;;;;;;35.90;7.85;;;;;;;20.09;45.38;100595.56;7307125;19;130859;-41
2022/03/15 10:11:43;;;;;;;46.55;7.80;;;;;;;20.07;45.50;100587.00;7304535;19;130919;-39
2022/03/15 10:14:10;;;;;;;73.10;9.27;;;;;;;20.08;45.15;100586.09;7302152;19;131081;-40
2022/03/15 10:16:42;;;;;;;50.88;7.93;;;;;;;20.01;45.21;100550.91;7303623;19;130330;-40
2022/03/15 10:19:13;;;;;;;40.42;7.00;;;;;;;20.10;45.46;100566.75;7305622;19;131067;-41
2022/03/15 10:21:45;;;;;;;66.72;9.45;;;;;;;20.09;45.30;100569.47;7306484;19;130029;-41
2022/03/15 10:24:13;;;;;;;37.10;6.82;;;;;;;20.08;45.07;100562.59;7306281;19;129311;-41
2022/03/15 10:26:39;;;;;;;55.38;8.27;;;;;;;20.10;45.01;100558.06;7300357;19;130983;-40
2022/03/15 10:29:06;;;;;;;60.53;8.70;;;;;;;20.08;45.52;100552.16;7304420;19;130294;-40
2022/03/15 10:31:32;;;;;;;27.73;5.40;;;;;;;20.08;45.15;100559.97;7306392;19;129821;-41
2022/03/15 10:34:01;;;;;;;57.22;7.97;;;;;;;20.09;44.96;100540.75;7305517;19;129184;-41
2022/03/15 10:36:36;;;;;;;48.20;7.63;;;;;;;20.11;45.47;100541.47;7304790;19;130125;-40
2022/03/15 10:39:02;;;;;;;27.88;6.95;;;;;;;20.10;45.68;100537.19;7313938;19;130627;-41
2022/03/15 10:41:27;;;;;;;65.88;9.52;;;;;;;20.09;45.06;100536.38;7312970;19;131478;-39
2022/03/15 10:43:53;;;;;;;51.70;8.35;;;;;;;20.08;44.91;100536.47;7310200;19;155705;-39
2022/03/15 10:46:22;;;;;;;45.53;7.73;;;;;;;20.10;45.09;100534.56;7311846;19;130625;-40
2022/03/15 10:48:59;;;;;;;48.38;7.30;;;;;;;20.11;45.02;100531.03;7310032;19;130364;-39
2022/03/15 10:51:25;;;;;;;35.35;6.28;;;;;;;20.11;45.43;100531.03;7314990;19;129143;-39
2022/03/15 10:53:50;;;;;;;42.15;6.50;;;;;;;20.10;45.57;100526.75;7311785;19;130136;-40
2022/03/15 10:56:23;;;;;;;76.85;10.00;;;;;;;20.09;45.08;100530.31;7312198;19;130958;-38
2022/03/15 10:58:52;;;;;;;33.42;6.22;;;;;;;20.01;44.96;100506.53;7309896;19;130171;-41
2022/03/15 11:01:20;;;;;;;32.78;6.30;;;;;;;20.07;44.92;100514.75;7311948;19;129280;-40
2022/03/15 11:03:54;;;;;;;66.40;8.27;;;;;;;20.10;45.13;100513.69;7310855;19;129622;-41
2022/03/15 11:06:31;;;;;;;51.83;7.70;;;;;;;20.09;45.44;100512.03;7310978;19;129062;-39